createdAt,value
2022-11-26T00:00:51.728Z,16.20
2022-11-26T00:03:18.598Z,16.20
2022-11-26T00:05:48.276Z,16.20
2022-11-26T00:08:40.889Z,16.20
2022-11-26T00:11:11.342Z,16.20
2022-11-26T00:13:37.888Z,16.20
2022-11-26T00:16:04.769Z,16.20
2022-11-26T00:18:31.358Z,16.20
2022-11-26T00:21:00.889Z,16.20
2022-11-26T00:23:28.553Z,16.20
2022-11-26T00:26:01.234Z,16.10
2022-11-26T00:28:38.297Z,16.10
2022-11-26T00:31:13.884Z,16.10
2022-11-26T00:33:40.472Z,16.10
2022-11-26T00:36:19.388Z,16.10
2022-11-26T00:38:49.185Z,16.10
2022-11-26T00:41:20.014Z,16.10
2022-11-26T00:43:46.629Z,16.10
2022-11-26T00:46:14.717Z,16.10
2022-11-26T00:48:41.587Z,16.10
2022-11-26T00:51:18.081Z,16.10
2022-11-26T00:53:45.693Z,16.10
2022-11-26T00:56:19.574Z,16.10
2022-11-26T00:58:47.893Z,16.10
2022-11-26T01:01:18.601Z,16.10
2022-11-26T01:03:45.266Z,16.10
2022-11-26T01:06:20.391Z,16.10
2022-11-26T01:11:17.820Z,16.10
2022-11-26T01:13:45.868Z,16.10
2022-11-26T01:16:18.926Z,16.10
2022-11-26T01:18:46.571Z,16.10
2022-11-26T01:21:13.621Z,16.10
2022-11-26T01:23:40.283Z,16.10
2022-11-26T01:26:13.128Z,16.10
2022-11-26T01:28:39.695Z,16.10
2022-11-26T01:31:08.946Z,16.10
2022-11-26T01:33:35.516Z,16.10
2022-11-26T01:36:02.059Z,16.00
2022-11-26T01:38:28.624Z,16.10
2022-11-26T01:41:34.093Z,16.00
2022-11-26T01:44:00.961Z,16.00
2022-11-26T01:46:30.709Z,16.10
2022-11-26T01:49:21.242Z,16.00
2022-11-26T01:51:52.049Z,16.10
2022-11-26T01:54:18.776Z,16.10
2022-11-26T01:56:52.539Z,16.00
2022-11-26T01:59:24.912Z,16.00
2022-11-26T02:01:57.356Z,16.00
2022-11-26T02:04:28.593Z,16.00
2022-11-26T02:06:56.497Z,16.00
2022-11-26T02:09:24.914Z,16.00
2022-11-26T02:11:51.635Z,16.00
2022-11-26T02:14:25.340Z,16.00
2022-11-26T02:17:15.827Z,16.00
2022-11-26T02:20:10.018Z,16.00
2022-11-26T02:22:56.865Z,16.00
2022-11-26T02:25:53.967Z,16.00
2022-11-26T02:28:42.596Z,16.00
2022-11-26T02:31:23.268Z,16.00
2022-11-26T02:33:57.898Z,16.00
2022-11-26T02:36:42.919Z,16.00
2022-11-26T02:39:12.496Z,16.00
2022-11-26T02:41:51.673Z,16.00
2022-11-26T02:44:22.850Z,16.00
2022-11-26T02:46:55.441Z,16.00
2022-11-26T02:49:22.955Z,16.00
2022-11-26T02:51:54.392Z,16.00
2022-11-26T02:54:22.536Z,16.00
2022-11-26T02:56:51.246Z,16.00
2022-11-26T02:59:18.281Z,16.00
2022-11-26T03:01:57.929Z,16.00
2022-11-26T03:04:32.182Z,16.00
2022-11-26T03:07:04.334Z,16.00
2022-11-26T03:09:48.283Z,16.00
2022-11-26T03:14:42.036Z,16.00
2022-11-26T03:17:08.601Z,16.00
2022-11-26T03:19:35.242Z,15.90
2022-11-26T03:22:01.796Z,16.00
2022-11-26T03:24:28.393Z,15.90
2022-11-26T03:26:54.951Z,16.00
2022-11-26T03:29:21.522Z,16.00
2022-11-26T03:31:48.239Z,15.90
2022-11-26T03:34:14.894Z,15.90
2022-11-26T03:36:44.440Z,15.90
2022-11-26T03:39:10.981Z,15.90
2022-11-26T03:41:37.822Z,15.90
2022-11-26T03:44:04.577Z,15.90
2022-11-26T03:46:31.163Z,16.00
2022-11-26T03:48:57.718Z,15.90
2022-11-26T03:51:24.276Z,15.90
2022-11-26T03:53:50.918Z,15.90
2022-11-26T03:58:44.581Z,15.90
2022-11-26T04:01:12.490Z,15.90
2022-11-26T04:03:39.858Z,15.90
2022-11-26T04:06:07.164Z,15.90
2022-11-26T04:08:33.874Z,15.90
2022-11-26T04:11:00.790Z,15.90
2022-11-26T04:13:27.413Z,15.90
2022-11-26T04:15:54.043Z,15.90
2022-11-26T04:18:20.584Z,15.90
2022-11-26T04:20:51.554Z,15.90
2022-11-26T04:23:19.796Z,15.90
2022-11-26T04:25:46.376Z,15.90
2022-11-26T04:28:13.592Z,15.90
2022-11-26T04:30:40.409Z,15.90
2022-11-26T04:33:06.980Z,15.90
2022-11-26T04:35:33.537Z,15.90
2022-11-26T04:38:00.108Z,15.90
2022-11-26T04:40:26.681Z,15.90
2022-11-26T04:42:53.269Z,15.90
2022-11-26T04:47:46.968Z,15.90
2022-11-26T04:50:13.555Z,15.80
2022-11-26T04:52:40.079Z,15.90
2022-11-26T04:55:06.944Z,15.90
2022-11-26T04:57:33.603Z,15.80
2022-11-26T05:00:00.155Z,15.80
2022-11-26T05:02:26.937Z,15.90
2022-11-26T05:04:53.514Z,15.80
2022-11-26T05:07:20.195Z,15.80
2022-11-26T05:09:46.860Z,15.90
2022-11-26T05:12:13.397Z,15.80
2022-11-26T05:14:40.347Z,15.80
2022-11-26T05:17:07.176Z,15.80
2022-11-26T05:19:34.121Z,15.80
2022-11-26T05:22:00.689Z,15.80
2022-11-26T05:24:27.322Z,15.80
2022-11-26T05:26:57.094Z,15.80
2022-11-26T05:29:24.372Z,15.80
2022-11-26T05:31:51.143Z,15.80
2022-11-26T05:34:17.937Z,15.80
2022-11-26T05:36:44.490Z,15.80
2022-11-26T05:39:11.050Z,15.80
2022-11-26T05:41:37.733Z,15.80
2022-11-26T05:44:04.646Z,15.80
2022-11-26T05:46:31.237Z,15.80
2022-11-26T05:48:57.836Z,15.80
2022-11-26T05:51:24.380Z,15.90
2022-11-26T05:53:50.945Z,15.90
2022-11-26T05:56:20.597Z,15.90
2022-11-26T05:58:47.185Z,15.90
2022-11-26T06:01:13.888Z,16.00
2022-11-26T06:03:40.773Z,16.00
2022-11-26T06:06:07.737Z,16.00
2022-11-26T06:08:34.896Z,16.00
2022-11-26T06:11:01.535Z,16.00
2022-11-26T06:13:28.136Z,16.00
2022-11-26T06:15:54.723Z,16.00
2022-11-26T06:18:21.303Z,16.00
2022-11-26T06:20:47.864Z,15.90
2022-11-26T06:23:14.460Z,15.90
2022-11-26T06:25:41.807Z,15.90
2022-11-26T06:28:08.516Z,15.90
2022-11-26T06:30:35.273Z,15.90
2022-11-26T06:33:01.885Z,16.00
2022-11-26T06:35:28.602Z,16.00
2022-11-26T06:37:55.568Z,16.00
2022-11-26T06:40:22.130Z,16.00
2022-11-26T06:42:51.213Z,16.00
2022-11-26T06:45:18.400Z,16.00
2022-11-26T06:47:47.284Z,16.10
2022-11-26T06:50:15.862Z,16.10
2022-11-26T06:52:42.444Z,16.00
2022-11-26T06:55:09.481Z,16.00
2022-11-26T06:57:36.135Z,15.50
2022-11-26T07:00:04.116Z,15.30
2022-11-26T07:02:30.717Z,15.80
2022-11-26T07:04:57.399Z,15.80
2022-11-26T07:07:24.032Z,15.90
2022-11-26T07:09:50.607Z,16.10
2022-11-26T07:12:17.165Z,16.10
2022-11-26T07:14:43.717Z,16.10
2022-11-26T07:17:10.437Z,16.10
2022-11-26T07:19:36.986Z,15.70
2022-11-26T07:22:03.528Z,15.90
2022-11-26T07:24:30.350Z,16.00
2022-11-26T07:26:56.888Z,16.10
2022-11-26T07:29:23.408Z,16.10
2022-11-26T07:31:49.999Z,16.10
2022-11-26T07:34:16.579Z,16.10
2022-11-26T07:36:43.461Z,16.20
2022-11-26T07:39:11.660Z,16.20
2022-11-26T07:41:38.517Z,16.20
2022-11-26T07:44:05.121Z,16.10
2022-11-26T07:46:31.702Z,16.10
2022-11-26T07:48:58.413Z,16.20
2022-11-26T07:51:28.069Z,14.80
2022-11-26T07:53:55.864Z,12.90
2022-11-26T07:56:22.614Z,11.80
2022-11-26T07:58:49.490Z,12.20
2022-11-26T08:01:21.598Z,13.00
2022-11-26T08:03:49.912Z,16.60
2022-11-26T08:06:20.035Z,14.20
2022-11-26T08:08:47.464Z,14.60
2022-11-26T08:11:20.299Z,14.90
2022-11-26T08:13:47.828Z,15.10
2022-11-26T08:16:14.916Z,15.20
2022-11-26T08:18:42.238Z,15.20
2022-11-26T08:21:09.261Z,15.30
2022-11-26T08:23:36.514Z,15.40
2022-11-26T08:26:32.612Z,15.40
2022-11-26T08:28:55.247Z,15.50
2022-11-26T08:31:22.307Z,15.50
2022-11-26T08:33:48.923Z,15.50
2022-11-26T08:36:15.563Z,15.50
2022-11-26T08:38:42.184Z,15.50
2022-11-26T08:41:11.400Z,15.60
2022-11-26T08:46:25.912Z,15.60
2022-11-26T08:48:55.599Z,15.60
2022-11-26T08:51:22.601Z,15.60
2022-11-26T08:53:49.178Z,15.70
2022-11-26T08:58:48.478Z,15.60
2022-11-26T09:01:18.090Z,15.70
2022-11-26T09:03:48.251Z,15.70
2022-11-26T09:06:15.344Z,15.70
2022-11-26T09:09:04.781Z,15.60
2022-11-26T09:11:32.270Z,15.70
2022-11-26T09:13:59.168Z,15.50
2022-11-26T09:16:26.657Z,15.50
2022-11-26T09:18:53.360Z,15.40
2022-11-26T09:23:47.163Z,15.60
2022-11-26T09:26:14.028Z,15.70
2022-11-26T09:31:07.757Z,15.60
2022-11-26T09:33:34.320Z,15.60
2022-11-26T09:36:04.981Z,15.50
2022-11-26T09:38:31.584Z,15.60
2022-11-26T09:41:18.462Z,15.60
2022-11-26T09:44:01.283Z,15.50
2022-11-26T09:46:45.431Z,15.50
2022-11-26T09:49:18.363Z,15.60
2022-11-26T09:51:48.976Z,15.60
2022-11-26T09:54:22.407Z,15.70
2022-11-26T09:56:53.673Z,15.70
2022-11-26T09:59:22.218Z,15.70
2022-11-26T10:01:48.872Z,15.70
2022-11-26T10:04:24.527Z,15.70
2022-11-26T10:06:56.191Z,15.40
2022-11-26T10:09:46.764Z,15.30
2022-11-26T10:13:03.436Z,15.50
2022-11-26T10:15:44.772Z,15.60
2022-11-26T10:18:28.406Z,15.60
2022-11-26T10:21:27.246Z,15.60
2022-11-26T10:24:22.668Z,15.60
2022-11-26T10:26:49.739Z,15.70
2022-11-26T10:29:27.785Z,15.70
2022-11-26T10:31:59.790Z,15.70
2022-11-26T10:34:41.631Z,15.70
2022-11-26T10:37:08.648Z,15.60
2022-11-26T10:39:35.184Z,14.90
2022-11-26T10:42:22.187Z,14.90
2022-11-26T10:44:50.793Z,15.20
2022-11-26T10:47:30.385Z,15.30
2022-11-26T10:50:46.170Z,15.40
2022-11-26T10:53:06.786Z,15.50
2022-11-26T10:55:43.557Z,15.60
2022-11-26T10:58:32.924Z,15.50
2022-11-26T11:01:02.328Z,15.60
2022-11-26T11:04:10.013Z,15.70
2022-11-26T11:06:43.925Z,15.70
2022-11-26T11:09:26.985Z,15.50
2022-11-26T11:12:11.714Z,15.50
2022-11-26T11:14:43.125Z,15.60
2022-11-26T11:17:24.196Z,15.60
2022-11-26T11:19:51.093Z,15.60
2022-11-26T11:22:19.860Z,15.60
2022-11-26T11:24:46.929Z,15.60
2022-11-26T11:27:39.267Z,15.60
2022-11-26T11:30:06.592Z,15.60
2022-11-26T11:32:40.586Z,15.70
2022-11-26T11:35:33.260Z,15.70
2022-11-26T11:38:00.089Z,15.80
2022-11-26T11:40:30.335Z,15.80
2022-11-26T11:43:04.859Z,15.80
2022-11-26T11:45:37.418Z,15.80
2022-11-26T11:48:32.717Z,15.80
2022-11-26T11:51:24.213Z,15.80
2022-11-26T11:53:59.598Z,15.80
2022-11-26T11:56:36.760Z,15.80
2022-11-26T11:59:24.996Z,15.80
2022-11-26T12:02:20.956Z,15.80
2022-11-26T12:05:16.265Z,15.80
2022-11-26T12:08:12.286Z,15.90
2022-11-26T12:10:52.992Z,15.90
2022-11-26T12:13:21.800Z,15.90
2022-11-26T12:15:53.770Z,16.00
2022-11-26T12:18:23.178Z,16.10
2022-11-26T12:20:55.246Z,16.10
2022-11-26T12:23:46.531Z,16.20
2022-11-26T12:26:22.599Z,16.20
2022-11-26T12:29:02.203Z,16.20
2022-11-26T12:31:36.759Z,16.20
2022-11-26T12:34:12.901Z,16.20
2022-11-26T12:36:45.204Z,16.20
2022-11-26T12:39:20.147Z,16.20
2022-11-26T12:41:53.498Z,16.20
2022-11-26T12:47:04.473Z,16.10
2022-11-26T12:49:44.829Z,16.20
2022-11-26T12:52:20.119Z,16.20
2022-11-26T12:55:05.441Z,16.20
2022-11-26T12:57:37.644Z,16.20
2022-11-26T13:00:12.662Z,15.90
2022-11-26T13:02:44.422Z,16.30
2022-11-26T13:05:23.639Z,16.20
2022-11-26T13:08:11.280Z,16.20
2022-11-26T13:10:52.840Z,16.20
2022-11-26T13:13:29.381Z,16.20
2022-11-26T13:16:28.542Z,16.20
2022-11-26T13:19:02.744Z,16.20
2022-11-26T13:21:59.839Z,16.20
2022-11-26T13:24:52.841Z,16.20
2022-11-26T13:27:42.986Z,16.30
2022-11-26T13:30:31.359Z,16.30
2022-11-26T13:33:26.436Z,16.30
2022-11-26T13:36:32.784Z,16.30
2022-11-26T13:39:11.111Z,16.40
2022-11-26T13:42:02.389Z,16.40
2022-11-26T13:44:51.635Z,16.30
2022-11-26T13:47:26.564Z,16.30
2022-11-26T13:50:01.027Z,16.30
2022-11-26T13:52:36.834Z,16.30
2022-11-26T13:55:09.717Z,16.40
2022-11-26T13:57:43.925Z,16.40
2022-11-26T14:00:11.390Z,16.40
2022-11-26T14:02:44.709Z,16.40
2022-11-26T14:05:16.185Z,16.40
2022-11-26T14:07:44.678Z,16.40
2022-11-26T14:10:35.823Z,16.40
2022-11-26T14:13:07.900Z,16.40
2022-11-26T14:15:43.524Z,16.40
2022-11-26T14:18:15.365Z,16.40
2022-11-26T14:21:00.559Z,16.40
2022-11-26T14:23:42.417Z,16.40
2022-11-26T14:26:37.800Z,16.40
2022-11-26T14:29:07.367Z,16.50
2022-11-26T14:31:35.658Z,16.40
2022-11-26T14:34:16.786Z,16.40
2022-11-26T14:37:02.159Z,16.40
2022-11-26T14:39:29.572Z,16.40
2022-11-26T14:42:05.295Z,16.40
2022-11-26T14:44:33.023Z,16.40
2022-11-26T14:47:07.579Z,16.40
2022-11-26T14:49:41.328Z,16.40
2022-11-26T14:52:38.852Z,16.40
2022-11-26T14:55:30.107Z,16.40
2022-11-26T14:58:06.159Z,16.40
2022-11-26T15:00:36.216Z,16.40
2022-11-26T15:03:03.779Z,16.40
2022-11-26T15:05:32.716Z,16.40
2022-11-26T15:08:17.280Z,16.50
2022-11-26T15:11:01.326Z,16.50
2022-11-26T15:13:36.786Z,16.40
2022-11-26T15:16:21.782Z,16.40
2022-11-26T15:18:48.461Z,16.40
2022-11-26T15:21:21.593Z,16.40
2022-11-26T15:23:49.991Z,16.40
2022-11-26T15:26:18.754Z,16.40
2022-11-26T15:28:45.516Z,16.50
2022-11-26T15:33:40.094Z,16.50
2022-11-26T15:36:11.571Z,16.40
2022-11-26T15:39:03.506Z,16.40
2022-11-26T15:41:30.652Z,16.50
2022-11-26T15:43:59.155Z,16.40
2022-11-26T15:49:25.047Z,16.60
2022-11-26T15:52:11.809Z,16.50
2022-11-26T15:55:12.132Z,16.50
2022-11-26T15:57:35.748Z,16.50
2022-11-26T16:00:18.309Z,16.50
2022-11-26T16:05:33.381Z,16.50
2022-11-26T16:08:20.143Z,16.50
2022-11-26T16:10:55.479Z,16.50
2022-11-26T16:13:27.788Z,16.50
2022-11-26T16:16:02.979Z,16.50
2022-11-26T16:18:39.789Z,16.50
2022-11-26T16:21:18.137Z,16.40
2022-11-26T16:23:56.096Z,16.50
2022-11-26T16:29:10.179Z,16.40
2022-11-26T16:34:09.237Z,16.50
2022-11-26T16:36:41.058Z,16.50
2022-11-26T16:39:15.935Z,16.50
2022-11-26T16:41:42.716Z,15.80
2022-11-26T16:44:09.368Z,16.80
2022-11-26T16:46:37.814Z,16.50
2022-11-26T16:49:04.755Z,16.40
2022-11-26T16:51:31.407Z,16.80
2022-11-26T16:53:57.997Z,16.50
2022-11-26T16:56:37.123Z,16.60
2022-11-26T16:59:19.133Z,16.60
2022-11-26T17:01:46.084Z,16.50
2022-11-26T17:04:14.345Z,16.50
2022-11-26T17:06:41.503Z,16.50
2022-11-26T17:09:15.698Z,16.50
2022-11-26T17:11:42.307Z,16.50
2022-11-26T17:14:11.202Z,16.50
2022-11-26T17:16:40.449Z,16.50
2022-11-26T17:19:12.360Z,16.50
2022-11-26T17:21:38.918Z,16.40
2022-11-26T17:24:05.726Z,15.40
2022-11-26T17:26:32.369Z,14.90
2022-11-26T17:28:58.974Z,15.10
2022-11-26T17:33:53.133Z,15.70
2022-11-26T17:36:22.026Z,15.80
2022-11-26T17:41:15.938Z,16.10
2022-11-26T17:46:17.527Z,16.20
2022-11-26T17:48:44.537Z,16.20
2022-11-26T17:51:14.510Z,16.20
2022-11-26T17:53:42.649Z,16.20
2022-11-26T17:56:22.903Z,16.20
2022-11-26T17:58:52.984Z,16.20
2022-11-26T18:01:19.788Z,16.20
2022-11-26T18:03:46.854Z,16.20
2022-11-26T18:06:18.206Z,16.30
2022-11-26T18:08:45.346Z,16.30
2022-11-26T18:11:15.803Z,16.30
2022-11-26T18:13:42.389Z,16.30
2022-11-26T18:16:09.045Z,16.30
2022-11-26T18:18:35.589Z,16.20
2022-11-26T18:21:02.135Z,16.20
2022-11-26T18:23:28.728Z,16.20
2022-11-26T18:25:55.279Z,16.20
2022-11-26T18:28:21.852Z,16.20
2022-11-26T18:30:49.915Z,16.20
2022-11-26T18:33:16.663Z,16.30
2022-11-26T18:38:11.290Z,15.90
2022-11-26T18:40:38.340Z,15.90
2022-11-26T18:43:05.157Z,16.00
2022-11-26T18:45:32.507Z,16.10
2022-11-26T18:47:59.851Z,16.20
2022-11-26T18:50:26.391Z,16.20
2022-11-26T18:52:54.852Z,16.20
2022-11-26T18:55:21.442Z,16.20
2022-11-26T18:57:47.962Z,16.30
2022-11-26T19:00:14.925Z,16.30
2022-11-26T19:02:41.535Z,16.30
2022-11-26T19:05:08.143Z,16.40
2022-11-26T19:07:34.909Z,16.40
2022-11-26T19:10:01.680Z,16.40
2022-11-26T19:12:28.225Z,16.40
2022-11-26T19:14:54.763Z,16.40
2022-11-26T19:17:21.333Z,16.40
2022-11-26T19:19:47.987Z,16.50
2022-11-26T19:22:14.574Z,16.60
2022-11-26T19:24:41.147Z,16.60
2022-11-26T19:27:07.788Z,16.60
2022-11-26T19:29:34.333Z,16.60
2022-11-26T19:32:00.900Z,16.60
2022-11-26T19:34:27.416Z,16.60
2022-11-26T19:36:58.101Z,16.60
2022-11-26T19:39:24.680Z,16.60
2022-11-26T19:41:51.640Z,16.60
2022-11-26T19:44:18.229Z,16.60
2022-11-26T19:46:47.611Z,16.60
2022-11-26T19:49:14.644Z,16.60
2022-11-26T19:51:41.521Z,16.60
2022-11-26T19:54:08.391Z,16.60
2022-11-26T19:56:35.223Z,16.60
2022-11-26T19:59:02.431Z,16.60
2022-11-26T20:01:31.026Z,16.60
2022-11-26T20:04:00.569Z,16.60
2022-11-26T20:06:28.688Z,16.60
2022-11-26T20:08:56.173Z,16.60
2022-11-26T20:11:22.928Z,16.60
2022-11-26T20:13:50.494Z,16.60
2022-11-26T20:16:30.922Z,16.60
2022-11-26T20:18:58.727Z,16.60
2022-11-26T20:21:27.653Z,16.60
2022-11-26T20:23:57.541Z,16.60
2022-11-26T20:26:34.420Z,16.50
2022-11-26T20:29:04.588Z,16.60
2022-11-26T20:31:31.581Z,16.60
2022-11-26T20:34:00.839Z,16.60
2022-11-26T20:36:27.411Z,16.60
2022-11-26T20:38:55.799Z,16.60
2022-11-26T20:41:23.917Z,16.60
2022-11-26T20:43:56.520Z,16.40
2022-11-26T20:46:25.829Z,16.10
2022-11-26T20:48:52.919Z,16.30
2022-11-26T20:51:21.704Z,16.40
2022-11-26T20:53:50.382Z,16.50
2022-11-26T20:56:18.790Z,16.50
2022-11-26T20:58:45.461Z,16.60
2022-11-26T21:01:17.167Z,16.60
2022-11-26T21:03:44.400Z,16.60
2022-11-26T21:06:18.102Z,16.60
2022-11-26T21:08:44.826Z,16.50
2022-11-26T21:11:12.661Z,16.60
2022-11-26T21:13:39.842Z,16.60
2022-11-26T21:16:09.885Z,16.50
2022-11-26T21:18:36.464Z,16.60
2022-11-26T21:21:19.360Z,16.60
2022-11-26T21:23:45.956Z,16.60
2022-11-26T21:26:16.493Z,16.60
2022-11-26T21:28:43.473Z,16.60
2022-11-26T21:31:16.933Z,16.60
2022-11-26T21:33:47.661Z,16.60
2022-11-26T21:36:16.227Z,16.70
2022-11-26T21:38:43.296Z,16.60
2022-11-26T21:41:15.348Z,16.60
2022-11-26T21:43:43.201Z,16.60
2022-11-26T21:46:13.838Z,16.60
2022-11-26T21:48:40.445Z,16.60
2022-11-26T21:51:13.067Z,16.60
2022-11-26T21:53:39.908Z,16.60
2022-11-26T21:56:08.583Z,16.60
2022-11-26T21:58:36.959Z,16.50
2022-11-26T22:01:11.347Z,16.60
2022-11-26T22:03:39.416Z,16.60
2022-11-26T22:06:06.409Z,16.60
2022-11-26T22:08:34.077Z,16.60
2022-11-26T22:11:06.761Z,16.60
2022-11-26T22:13:33.272Z,16.60
2022-11-26T22:15:59.870Z,16.60
2022-11-26T22:18:26.493Z,16.50
2022-11-26T22:20:53.256Z,16.40
2022-11-26T22:23:20.073Z,16.40
2022-11-26T22:25:46.718Z,16.40
2022-11-26T22:28:13.310Z,16.40
2022-11-26T22:30:40.324Z,16.40
2022-11-26T22:33:06.958Z,16.40
2022-11-26T22:35:34.240Z,16.40
2022-11-26T22:38:00.924Z,16.40
2022-11-26T22:40:27.843Z,16.40
2022-11-26T22:42:58.675Z,16.40
2022-11-26T22:45:26.101Z,16.40
2022-11-26T22:47:53.057Z,16.40
2022-11-26T22:50:19.972Z,16.40
2022-11-26T22:52:46.538Z,16.40
2022-11-26T22:55:13.118Z,16.40
2022-11-26T22:57:39.780Z,16.30
2022-11-26T23:00:11.435Z,16.30
2022-11-26T23:02:38.229Z,16.30
2022-11-26T23:05:05.137Z,16.40
2022-11-26T23:07:32.091Z,16.30
2022-11-26T23:09:58.644Z,16.30
2022-11-26T23:12:25.317Z,16.30
2022-11-26T23:14:51.875Z,16.30
2022-11-26T23:17:18.423Z,16.30
2022-11-26T23:19:44.971Z,16.30
2022-11-26T23:22:11.493Z,16.30
2022-11-26T23:24:38.067Z,16.20
2022-11-26T23:27:04.611Z,16.20
2022-11-26T23:29:31.157Z,16.30
2022-11-26T23:34:27.629Z,16.20
2022-11-26T23:36:54.160Z,16.20
2022-11-26T23:39:20.702Z,16.20
2022-11-26T23:41:47.257Z,16.20
2022-11-26T23:44:13.790Z,16.20
2022-11-26T23:46:40.375Z,16.20
2022-11-26T23:49:06.958Z,16.20
2022-11-26T23:51:33.912Z,16.20
2022-11-26T23:56:33.195Z,16.10
2022-11-26T23:59:02.505Z,16.10
